Time,TemperatureF,DewpointF,PressureIn,WindDirection,WindDirectionDegrees,WindSpeedMPH,WindSpeedGustMPH,Humidity,HourlyPrecipIn,Conditions,Clouds,dailyrainin,SolarRadiationWatts/m^2,SoftwareType,DateUTC
2013-03-27 00:03:00,37.0,25.0,-100.00,WSW,247,4.0,9.0,62,0.00,,,0.00,0.000000,,2013-03-27 04:03:00,
2013-03-27 00:13:00,37.0,25.0,-100.00,WSW,247,4.0,9.0,62,0.00,,,0.00,0.000000,,2013-03-27 04:13:00,
2013-03-27 00:23:00,37.0,25.0,-100.00,WSW,247,4.0,9.0,62,0.00,,,0.00,0.000000,,2013-03-27 04:23:00,
2013-03-27 00:53:00,34.0,26.0,-100.00,WSW,246,5.0,7.0,72,0.00,,,0.00,0.000000,,2013-03-27 04:53:00,
2013-03-27 01:03:00,34.0,26.0,-100.00,WSW,246,5.0,7.0,72,0.00,,,0.00,0.000000,,2013-03-27 05:03:00,
2013-03-27 01:13:00,34.0,26.0,-100.00,WSW,246,5.0,7.0,72,0.00,,,0.00,0.000000,,2013-03-27 05:13:00,
2013-03-27 01:23:00,34.0,26.0,-100.00,WSW,246,5.0,7.0,72,0.00,,,0.00,0.000000,,2013-03-27 05:23:00,
2013-03-27 01:53:00,33.0,25.0,-100.00,WSW,248,7.0,10.0,73,0.00,,,0.00,0.000000,,2013-03-27 05:53:00,
2013-03-27 02:02:00,33.0,25.0,-100.00,WSW,248,7.0,10.0,73,0.00,,,0.00,0.000000,,2013-03-27 06:02:00,
2013-03-27 02:12:00,33.0,25.0,-100.00,WSW,248,7.0,10.0,73,0.00,,,0.00,0.000000,,2013-03-27 06:12:00,
2013-03-27 02:22:00,33.0,25.0,-100.00,WSW,248,7.0,10.0,73,0.00,,,0.00,0.000000,,2013-03-27 06:22:00,
2013-03-27 02:53:00,32.0,24.0,-100.00,WSW,243,7.0,13.0,73,0.00,,,0.00,0.000000,,2013-03-27 06:53:00,
2013-03-27 03:02:00,32.0,24.0,-100.00,WSW,243,7.0,13.0,73,0.00,,,0.00,0.000000,,2013-03-27 07:02:00,
2013-03-27 03:12:00,32.0,24.0,-100.00,WSW,243,7.0,13.0,73,0.00,,,0.00,0.000000,,2013-03-27 07:12:00,
2013-03-27 03:22:00,32.0,24.0,-100.00,WSW,243,7.0,13.0,73,0.00,,,0.00,0.000000,,2013-03-27 07:22:00,
2013-03-27 03:54:00,31.0,24.0,-100.00,WSW,244,8.0,16.0,75,0.00,,,0.00,0.000000,,2013-03-27 07:54:00,
2013-03-27 04:02:00,31.0,24.0,-100.00,WSW,244,8.0,16.0,75,0.00,,,0.00,0.000000,,2013-03-27 08:02:00,
2013-03-27 04:13:00,31.0,24.0,-100.00,WSW,244,8.0,16.0,75,0.00,,,0.00,0.000000,,2013-03-27 08:13:00,
2013-03-27 04:22:00,31.0,24.0,-100.00,WSW,244,8.0,16.0,75,0.00,,,0.00,0.000000,,2013-03-27 08:22:00,
2013-03-27 04:52:00,31.0,24.0,-100.00,WSW,244,8.0,14.0,76,0.00,,,0.00,0.000000,,2013-03-27 08:52:00,
2013-03-27 05:02:00,31.0,24.0,-100.00,WSW,244,8.0,14.0,76,0.00,,,0.00,0.000000,,2013-03-27 09:02:00,
2013-03-27 05:12:00,31.0,24.0,-100.00,WSW,244,8.0,14.0,76,0.00,,,0.00,0.000000,,2013-03-27 09:12:00,
2013-03-27 05:22:00,31.0,24.0,-100.00,WSW,244,8.0,14.0,76,0.00,,,0.00,0.000000,,2013-03-27 09:22:00,
2013-03-27 05:52:00,32.0,26.0,-100.00,WSW,257,7.0,13.0,79,0.00,,,0.00,0.000000,,2013-03-27 09:52:00,
2013-03-27 06:03:00,32.0,26.0,-100.00,WSW,257,7.0,13.0,79,0.00,,,0.00,0.000000,,2013-03-27 10:03:00,
2013-03-27 06:13:00,32.0,26.0,-100.00,WSW,257,7.0,13.0,79,0.00,,,0.00,0.000000,,2013-03-27 10:13:00,
2013-03-27 06:23:00,32.0,26.0,-100.00,WSW,257,7.0,13.0,79,0.00,,,0.00,0.000000,,2013-03-27 10:23:00,
2013-03-27 06:53:00,32.0,27.0,-100.00,WSW,247,7.0,13.0,81,0.00,,,0.00,0.000000,,2013-03-27 10:53:00,
2013-03-27 07:03:00,32.0,27.0,-100.00,WSW,247,7.0,13.0,81,0.00,,,0.00,0.000000,,2013-03-27 11:03:00,
2013-03-27 07:12:00,32.0,27.0,-100.00,WSW,247,7.0,13.0,81,0.00,,,0.00,0.000000,,2013-03-27 11:12:00,
2013-03-27 07:22:00,32.0,27.0,-100.00,WSW,247,7.0,13.0,81,0.00,,,0.00,0.000000,,2013-03-27 11:22:00,
2013-03-27 07:53:00,32.0,27.0,-100.00,WSW,242,7.0,11.0,81,0.00,,,0.00,6.000000,,2013-03-27 11:53:00,
2013-03-27 08:02:00,32.0,27.0,-100.00,WSW,242,7.0,11.0,81,0.00,,,0.00,6.000000,,2013-03-27 12:02:00,
2013-03-27 08:12:00,32.0,27.0,-100.00,WSW,242,7.0,11.0,81,0.00,,,0.00,6.000000,,2013-03-27 12:12:00,
2013-03-27 08:23:00,32.0,27.0,-100.00,WSW,242,7.0,11.0,81,0.00,,,0.00,6.000000,,2013-03-27 12:23:00,
2013-03-27 08:52:00,34.0,28.0,-100.00,WSW,241,9.0,16.0,79,0.00,,,0.00,70.000000,,2013-03-27 12:52:00,
2013-03-27 09:02:00,34.0,28.0,-100.00,WSW,241,9.0,16.0,79,0.00,,,0.00,70.000000,,2013-03-27 13:02:00,
2013-03-27 09:12:00,34.0,28.0,-100.00,WSW,241,9.0,16.0,79,0.00,,,0.00,70.000000,,2013-03-27 13:12:00,
2013-03-27 09:23:00,34.0,28.0,-100.00,WSW,241,9.0,16.0,79,0.00,,,0.00,70.000000,,2013-03-27 13:23:00,
2013-03-27 09:53:00,35.0,28.0,-100.00,WSW,240,9.0,15.0,75,0.00,,,0.00,185.000000,,2013-03-27 13:53:00,
2013-03-27 10:02:00,35.0,28.0,-100.00,WSW,240,9.0,15.0,75,0.00,,,0.00,185.000000,,2013-03-27 14:02:00,
2013-03-27 10:12:00,35.0,28.0,-100.00,WSW,240,9.0,15.0,75,0.00,,,0.00,185.000000,,2013-03-27 14:12:00,
2013-03-27 10:22:00,35.0,28.0,-100.00,WSW,240,9.0,15.0,75,0.00,,,0.00,185.000000,,2013-03-27 14:22:00,
2013-03-27 10:52:00,39.0,29.0,-100.00,West,265,9.0,17.0,67,0.00,,,0.00,309.000000,,2013-03-27 14:52:00,
2013-03-27 11:03:00,39.0,29.0,-100.00,West,265,9.0,17.0,67,0.00,,,0.00,309.000000,,2013-03-27 15:03:00,
2013-03-27 11:12:00,39.0,29.0,-100.00,West,265,9.0,17.0,67,0.00,,,0.00,309.000000,,2013-03-27 15:12:00,
2013-03-27 11:23:00,39.0,29.0,-100.00,West,265,9.0,17.0,67,0.00,,,0.00,309.000000,,2013-03-27 15:23:00,
2013-03-27 11:53:00,41.0,29.0,-100.00,West,266,10.0,17.0,61,0.00,,,0.00,423.000000,,2013-03-27 15:53:00,
2013-03-27 12:03:00,41.0,29.0,-100.00,West,266,10.0,17.0,61,0.00,,,0.00,423.000000,,2013-03-27 16:03:00,
2013-03-27 12:13:00,41.0,29.0,-100.00,West,266,10.0,17.0,61,0.00,,,0.00,423.000000,,2013-03-27 16:13:00,
2013-03-27 12:22:00,41.0,29.0,-100.00,West,266,10.0,17.0,61,0.00,,,0.00,423.000000,,2013-03-27 16:22:00,
2013-03-27 14:03:00,39.0,31.0,-100.00,SW,231,9.0,20.0,74,-99.99,,,0.00,328.000000,,2013-03-27 18:03:00,
2013-03-27 14:12:00,39.0,31.0,-100.00,SW,231,9.0,20.0,74,-99.99,,,0.00,328.000000,,2013-03-27 18:12:00,
2013-03-27 14:23:00,39.0,31.0,-100.00,SW,231,9.0,20.0,74,-99.99,,,0.00,328.000000,,2013-03-27 18:23:00,
2013-03-27 14:53:00,34.0,31.0,-100.00,SW,232,8.0,21.0,90,0.03,,,0.03,112.000000,,2013-03-27 18:53:00,
2013-03-27 15:03:00,34.0,31.0,-100.00,SW,232,8.0,21.0,90,0.03,,,0.03,112.000000,,2013-03-27 19:03:00,
2013-03-27 15:12:00,34.0,31.0,-100.00,SW,232,8.0,21.0,90,0.03,,,0.03,112.000000,,2013-03-27 19:12:00,
2013-03-27 15:22:00,34.0,31.0,-100.00,SW,232,8.0,21.0,90,0.03,,,0.03,112.000000,,2013-03-27 19:22:00,
2013-03-27 15:52:00,37.0,34.0,-100.00,WSW,238,10.0,21.0,88,0.01,,,0.04,263.000000,,2013-03-27 19:52:00,
2013-03-27 16:03:00,37.0,34.0,-100.00,WSW,238,10.0,21.0,88,0.01,,,0.04,263.000000,,2013-03-27 20:03:00,
2013-03-27 16:12:00,37.0,34.0,-100.00,WSW,238,10.0,21.0,88,0.01,,,0.04,263.000000,,2013-03-27 20:12:00,
2013-03-27 16:22:00,37.0,34.0,-100.00,WSW,238,10.0,21.0,88,0.01,,,0.04,263.000000,,2013-03-27 20:22:00,
2013-03-27 16:52:00,34.0,32.0,-100.00,WSW,244,9.0,20.0,91,0.02,,,0.06,128.000000,,2013-03-27 20:52:00,
2013-03-27 17:02:00,34.0,32.0,-100.00,WSW,244,9.0,20.0,91,0.02,,,0.06,128.000000,,2013-03-27 21:02:00,
2013-03-27 17:12:00,34.0,32.0,-100.00,WSW,244,9.0,20.0,91,0.02,,,0.06,128.000000,,2013-03-27 21:12:00,
2013-03-27 17:23:00,34.0,32.0,-100.00,WSW,244,9.0,20.0,91,0.02,,,0.06,128.000000,,2013-03-27 21:23:00,
2013-03-27 17:52:00,34.0,32.0,-100.00,WSW,243,9.0,17.0,93,0.02,,,0.08,89.000000,,2013-03-27 21:52:00,
2013-03-27 18:03:00,34.0,32.0,-100.00,WSW,243,9.0,17.0,93,0.02,,,0.08,89.000000,,2013-03-27 22:03:00,
2013-03-27 18:12:00,34.0,32.0,-100.00,WSW,243,9.0,17.0,93,0.02,,,0.08,89.000000,,2013-03-27 22:12:00,
2013-03-27 18:23:00,34.0,32.0,-100.00,WSW,243,9.0,17.0,93,0.02,,,0.08,89.000000,,2013-03-27 22:23:00,
2013-03-27 18:53:00,32.0,31.0,-100.00,SW,234,7.0,15.0,96,0.01,,,0.09,24.000000,,2013-03-27 22:53:00,
2013-03-27 19:03:00,32.0,31.0,-100.00,SW,234,7.0,15.0,96,0.01,,,0.09,24.000000,,2013-03-27 23:03:00,
2013-03-27 19:12:00,32.0,31.0,-100.00,SW,234,7.0,15.0,96,0.01,,,0.09,24.000000,,2013-03-27 23:12:00,
2013-03-27 19:22:00,32.0,31.0,-100.00,SW,234,7.0,15.0,96,0.01,,,0.09,24.000000,,2013-03-27 23:22:00,
2013-03-27 19:52:00,32.0,31.0,-100.00,WSW,237,7.0,13.0,97,0.01,,,0.10,12.000000,,2013-03-27 23:52:00,
2013-03-27 20:02:00,32.0,31.0,-100.00,WSW,237,7.0,13.0,97,0.01,,,0.10,12.000000,,2013-03-28 00:02:00,
2013-03-27 20:12:00,32.0,31.0,-100.00,WSW,237,7.0,13.0,97,0.01,,,0.10,12.000000,,2013-03-28 00:12:00,
2013-03-27 20:22:00,32.0,31.0,-100.00,WSW,237,7.0,13.0,97,0.01,,,0.10,12.000000,,2013-03-28 00:22:00,